Time;durP1;ratioP1;P1;durP2;ratioP2;P2;SDS_P1;SDS_P2;PMS_P1;PMS_P2;Temp;Humidity;BMP_temperature;BMP_pressure;BME280_temperature;BME280_humidity;BME280_pressure;Samples;Min_cycle;Max_cycle;Signal;HPM_P1;HPM_P2
2022/05/11 00:01:13;;;;;;;7.93;4.93;;;;;;;19.23;49.53;100764.81;7395960;19;20031;-65
2022/05/11 00:03:42;;;;;;;5.82;5.20;;;;;;;19.26;49.47;100749.53;7395457;19;20030;-65
2022/05/11 00:06:10;;;;;;;7.60;5.18;;;;;;;19.29;48.82;100745.84;7395425;19;20017;-65
2022/05/11 00:08:38;;;;;;;6.32;5.63;;;;;;;19.32;49.26;100754.50;7395241;19;20031;-65
2022/05/11 00:11:08;;;;;;;7.80;5.35;;;;;;;19.36;48.79;100741.84;7394952;19;20519;-66
2022/05/11 00:13:39;;;;;;;5.50;5.00;;;;;;;19.40;49.05;100746.06;7393166;19;20018;-65
2022/05/11 00:16:07;;;;;;;5.65;5.13;;;;;;;19.43;48.98;100745.03;7395458;19;20014;-65
2022/05/11 00:18:36;;;;;;;5.82;5.32;;;;;;;19.43;48.88;100745.03;7393186;19;20018;-66
2022/05/11 00:21:04;;;;;;;7.57;5.40;;;;;;;19.47;48.69;100741.22;7394734;19;20022;-65
2022/05/11 00:23:32;;;;;;;5.80;5.20;;;;;;;19.48;48.85;100738.47;7392980;19;20022;-65
2022/05/11 00:26:01;;;;;;;6.07;5.47;;;;;;;19.48;48.90;100740.28;7393025;19;20018;-66
2022/05/11 00:28:29;;;;;;;6.20;5.28;;;;;;;19.49;48.94;100744.66;7392948;19;20023;-65
2022/05/11 00:31:01;;;;;;;6.63;5.47;;;;;;;19.49;49.06;100744.66;7394811;19;20028;-65
2022/05/11 00:33:29;;;;;;;6.55;5.93;;;;;;;19.48;49.16;100742.94;7393406;19;20011;-65
2022/05/11 00:35:57;;;;;;;8.45;5.30;;;;;;;19.47;49.05;100744.72;7394497;19;20015;-65
2022/05/11 00:38:28;;;;;;;6.00;5.28;;;;;;;19.46;49.51;100739.50;7394499;19;20019;-65
2022/05/11 00:41:00;;;;;;;6.72;5.25;;;;;;;19.44;49.33;100742.28;7394864;19;20014;-65
2022/05/11 00:43:31;;;;;;;7.28;5.75;;;;;;;19.42;49.09;100746.81;7398489;19;20014;-65
2022/05/11 00:46:12;;;;;;;14.35;5.45;;;;;;;19.41;49.92;100747.78;7401572;19;20360;-64
2022/05/11 00:51:35;;;;;;;5.97;5.35;;;;;;;19.32;50.31;100749.19;7401706;19;20023;-65
2022/05/11 00:54:07;;;;;;;7.25;5.80;;;;;;;19.28;50.30;100754.75;7400668;19;20014;-65
2022/05/11 00:56:38;;;;;;;7.40;5.70;;;;;;;19.24;50.42;100755.88;7401658;19;20035;-66
2022/05/11 00:59:11;;;;;;;8.45;5.75;;;;;;;19.19;51.41;100757.00;7398037;19;20014;-65
2022/05/11 01:01:44;;;;;;;10.95;5.68;;;;;;;19.14;51.51;100760.88;7398237;19;20484;-65
2022/05/11 01:04:15;;;;;;;6.20;5.40;;;;;;;19.08;52.27;100755.91;7400279;19;20032;-65
2022/05/11 01:06:44;;;;;;;5.93;4.88;;;;;;;19.04;51.98;100766.72;7398953;19;20018;-65
2022/05/11 01:09:19;;;;;;;6.28;5.32;;;;;;;19.00;52.64;100770.50;7398383;19;20022;-65
2022/05/11 01:11:50;;;;;;;6.05;5.50;;;;;;;18.96;52.66;100763.63;7400792;19;20019;-65
2022/05/11 01:14:22;;;;;;;7.00;5.40;;;;;;;18.93;52.74;100758.50;7402051;19;20027;-65
2022/05/11 01:16:53;;;;;;;6.40;5.30;;;;;;;18.92;53.04;100758.56;7400275;19;20022;-66
2022/05/11 01:19:26;;;;;;;6.22;5.63;;;;;;;18.88;54.34;100763.19;7402058;19;20033;-65
2022/05/11 01:22:03;;;;;;;6.45;5.47;;;;;;;18.83;54.90;100758.13;7401049;19;20011;-65
2022/05/11 01:24:40;;;;;;;6.47;5.50;;;;;;;18.78;54.59;100754.88;7398293;19;20022;-65
2022/05/11 01:27:28;;;;;;;7.20;5.68;;;;;;;18.71;57.05;100757.00;7401016;19;20069;-65
2022/05/11 01:29:58;;;;;;;7.88;6.50;;;;;;;18.66;55.64;100755.56;7397805;19;20029;-65
2022/05/11 01:32:28;;;;;;;6.88;6.28;;;;;;;18.59;56.45;100757.69;7397696;19;20032;-66
2022/05/11 01:35:03;;;;;;;8.10;5.80;;;;;;;18.54;57.29;100751.78;7398440;19;20023;-65
2022/05/11 01:37:32;;;;;;;9.07;5.78;;;;;;;18.48;56.97;100747.66;7400456;19;20031;-66
2022/05/11 01:40:03;;;;;;;12.15;6.07;;;;;;;18.44;57.51;100750.56;7397526;19;20018;-66
2022/05/11 01:42:31;;;;;;;7.00;6.30;;;;;;;18.40;57.86;100756.03;7397896;19;20043;-65
2022/05/11 01:44:59;;;;;;;7.63;5.72;;;;;;;18.36;58.29;100749.19;7398060;19;20022;-66
2022/05/11 01:47:27;;;;;;;8.27;5.95;;;;;;;18.33;58.48;100736.06;7400503;19;20031;-66
2022/05/11 01:49:56;;;;;;;7.82;6.18;;;;;;;18.32;58.74;100728.19;7399643;19;20023;-66
2022/05/11 01:52:24;;;;;;;7.82;7.13;;;;;;;18.30;59.02;100727.41;7398602;19;20544;-66
2022/05/11 01:54:52;;;;;;;9.68;6.45;;;;;;;18.30;58.64;100722.97;7394484;19;20014;-66
2022/05/11 01:57:23;;;;;;;9.43;6.45;;;;;;;18.31;58.73;100714.06;7399442;19;20014;-65
2022/05/11 01:59:51;;;;;;;8.23;6.32;;;;;;;18.34;58.86;100702.41;7398050;19;20030;-66
2022/05/11 02:02:19;;;;;;;9.50;7.30;;;;;;;18.34;58.90;100708.56;7396580;19;20387;-66
2022/05/11 02:10:17;;;;;;;14.07;6.40;;;;;;;18.34;59.27;100697.94;7394980;19;20011;-66
2022/05/11 02:12:49;;;;;;;7.30;6.60;;;;;;;18.34;59.18;100697.94;7398046;19;20034;-65
2022/05/11 02:15:18;;;;;;;8.07;6.55;;;;;;;18.33;59.12;100701.53;7397049;19;20035;-66
2022/05/11 02:17:47;;;;;;;7.55;6.72;;;;;;;18.35;59.54;100704.97;7399896;19;20039;-65
2022/05/11 02:20:17;;;;;;;8.63;6.90;;;;;;;18.35;59.59;100701.44;7399100;19;20495;-67
2022/05/11 02:22:47;;;;;;;7.32;6.63;;;;;;;18.35;59.16;100697.00;7397888;19;20019;-65
2022/05/11 02:25:17;;;;;;;7.57;6.68;;;;;;;18.35;59.27;100694.34;7396613;19;20018;-66
2022/05/11 02:27:50;;;;;;;7.93;6.25;;;;;;;18.34;59.50;100692.63;7398475;19;20019;-66
2022/05/11 02:30:22;;;;;;;8.30;7.50;;;;;;;18.34;59.72;100702.41;7396968;19;20035;-66
2022/05/11 02:32:50;;;;;;;13.55;7.10;;;;;;;18.33;59.50;100711.31;7396244;19;20022;-65
2022/05/11 02:35:19;;;;;;;7.40;6.63;;;;;;;18.32;59.76;100710.44;7396786;19;20027;-66
2022/05/11 02:37:50;;;;;;;10.07;6.43;;;;;;;18.28;59.83;100695.63;7395427;19;20484;-66
2022/05/11 02:40:21;;;;;;;7.78;6.80;;;;;;;18.26;59.69;100697.53;7398313;19;20027;-66
2022/05/11 02:42:52;;;;;;;7.68;6.30;;;;;;;18.24;59.92;100696.75;7398254;19;20050;-65
2022/05/11 02:45:21;;;;;;;8.90;6.55;;;;;;;18.22;60.13;100706.56;7395816;19;20019;-65
2022/05/11 02:47:51;;;;;;;6.70;6.00;;;;;;;18.21;59.94;100719.00;7397339;19;20548;-65
2022/05/11 02:50:25;;;;;;;8.48;6.00;;;;;;;18.20;60.24;100727.06;7397463;19;20023;-66
2022/05/11 02:52:53;;;;;;;8.13;6.95;;;;;;;18.17;60.18;100730.75;7395857;19;20014;-66
2022/05/11 02:55:22;;;;;;;8.63;6.43;;;;;;;18.13;60.65;100730.97;7395606;19;20023;-65
2022/05/11 02:57:53;;;;;;;10.63;7.05;;;;;;;18.03;60.73;100723.53;7397277;19;20018;-65
2022/05/11 03:00:22;;;;;;;8.82;7.15;;;;;;;17.97;61.33;100731.81;7395083;19;20416;-65
2022/05/11 03:02:50;;;;;;;8.18;6.53;;;;;;;17.92;60.91;100724.03;7394905;19;20480;-65
2022/05/11 03:05:18;;;;;;;8.13;6.88;;;;;;;17.90;61.17;100733.88;7394415;19;20015;-66
2022/05/11 03:07:47;;;;;;;8.40;6.80;;;;;;;17.87;61.66;100731.41;7396567;19;20436;-65
2022/05/11 03:10:16;;;;;;;9.57;7.10;;;;;;;17.84;61.64;100734.19;7395244;19;20031;-66
2022/05/11 03:12:44;;;;;;;8.07;7.28;;;;;;;17.81;62.23;100736.19;7396462;19;20015;-65
2022/05/11 03:15:15;;;;;;;7.97;7.28;;;;;;;17.74;62.38;100728.53;7395312;19;20014;-66
2022/05/11 03:17:43;;;;;;;8.00;7.25;;;;;;;17.70;62.37;100728.75;7397054;19;20024;-65
2022/05/11 03:20:12;;;;;;;8.60;7.15;;;;;;;17.65;62.60;100738.75;7396599;19;20010;-65
2022/05/11 03:22:41;;;;;;;7.72;6.93;;;;;;;17.62;62.90;100736.28;7394558;19;20447;-66
2022/05/11 03:25:11;;;;;;;13.50;7.63;;;;;;;17.57;62.79;100739.16;7395109;19;20022;-66
2022/05/11 03:27:39;;;;;;;7.95;7.15;;;;;;;17.55;63.00;100741.00;7394346;19;20026;-66
2022/05/11 03:30:09;;;;;;;11.88;8.18;;;;;;;17.51;63.76;100745.63;7394120;19;20476;-66
2022/05/11 03:35:21;;;;;;;9.35;8.35;;;;;;;17.34;64.02;100748.25;7394705;19;20025;-66
2022/05/11 03:37:49;;;;;;;9.88;8.88;;;;;;;17.26;64.87;100751.28;7395479;19;20375;-66
2022/05/11 03:40:17;;;;;;;10.05;8.80;;;;;;;17.19;65.51;100763.16;7395714;19;20026;-66
2022/05/11 03:42:45;;;;;;;9.15;8.35;;;;;;;17.13;65.68;100760.81;7395186;19;20014;-66
2022/05/11 03:45:16;;;;;;;10.27;8.63;;;;;;;17.06;66.00;100763.75;7393503;19;20022;-64
2022/05/11 03:47:47;;;;;;;9.98;8.48;;;;;;;17.01;66.79;100764.88;7394878;19;20505;-65
2022/05/11 03:50:16;;;;;;;10.98;9.32;;;;;;;16.97;66.36;100763.34;7395738;19;20011;-66
2022/05/11 03:52:45;;;;;;;10.50;8.57;;;;;;;16.95;66.45;100760.75;7394690;19;20369;-66
2022/05/11 03:55:13;;;;;;;10.98;8.57;;;;;;;16.95;66.68;100763.41;7392921;19;20400;-66
2022/05/11 03:57:42;;;;;;;9.00;8.20;;;;;;;16.97;66.44;100752.72;7395326;19;20027;-66
2022/05/11 04:00:13;;;;;;;9.40;8.55;;;;;;;17.00;66.52;100766.69;7393156;19;20027;-65
2022/05/11 04:02:42;;;;;;;8.90;7.68;;;;;;;17.01;66.49;100757.81;7394686;19;20397;-66
2022/05/11 04:05:14;;;;;;;9.85;8.95;;;;;;;17.03;66.67;100758.59;7393143;19;20026;-66
2022/05/11 04:07:42;;;;;;;10.18;8.90;;;;;;;17.03;66.60;100755.94;7393066;19;20014;-66
2022/05/11 04:10:12;;;;;;;11.40;9.10;;;;;;;17.05;66.52;100756.72;7392632;19;20032;-65
2022/05/11 04:12:41;;;;;;;12.70;8.18;;;;;;;17.08;66.64;100750.41;7394795;19;20026;-65
2022/05/11 04:15:11;;;;;;;10.40;9.40;;;;;;;17.10;66.61;100757.34;7392720;19;20022;-64
2022/05/11 04:17:40;;;;;;;9.43;8.52;;;;;;;17.13;66.72;100751.03;7392607;19;20094;-65
2022/05/11 04:20:10;;;;;;;10.07;8.73;;;;;;;17.16;66.80;100755.34;7392456;19;20018;-65
2022/05/11 04:22:41;;;;;;;12.15;9.25;;;;;;;17.19;66.70;100753.41;7394446;19;20023;-66
2022/05/11 04:25:15;;;;;;;12.25;8.82;;;;;;;17.21;66.87;100743.59;7392732;19;20023;-66
2022/05/11 04:27:44;;;;;;;9.88;8.98;;;;;;;17.24;66.70;100739.94;7392260;19;20025;-66
2022/05/11 04:30:14;;;;;;;11.48;10.13;;;;;;;17.28;66.56;100744.13;7392042;19;20019;-66
2022/05/11 04:32:42;;;;;;;9.98;8.98;;;;;;;17.30;66.83;100744.94;7391314;19;20019;-65
2022/05/11 04:35:11;;;;;;;13.52;9.45;;;;;;;17.33;66.79;100746.56;7391544;19;20035;-65
2022/05/11 04:37:41;;;;;;;9.85;8.90;;;;;;;17.35;66.53;100750.84;7393701;19;20036;-65
2022/05/11 04:40:11;;;;;;;13.02;10.43;;;;;;;17.39;66.86;100747.09;7394474;19;20043;-66
2022/05/11 04:42:39;;;;;;;10.85;9.63;;;;;;;17.39;66.73;100749.75;7392113;19;20078;-66
2022/05/11 04:45:08;;;;;;;11.80;9.35;;;;;;;17.39;66.67;100752.41;7392342;19;20021;-66
2022/05/11 04:47:36;;;;;;;12.00;9.75;;;;;;;17.39;66.98;100747.09;7394258;19;20022;-66
2022/05/11 04:50:05;;;;;;;10.93;9.82;;;;;;;17.41;66.76;100739.06;7393697;19;20036;-68
2022/05/11 04:52:33;;;;;;;12.98;10.05;;;;;;;17.43;66.97;100742.50;7392615;19;20015;-65
2022/05/11 04:55:06;;;;;;;14.70;12.85;;;;;;;17.48;67.14;100740.47;7390231;19;20018;-66
2022/05/11 04:57:35;;;;;;;13.77;11.10;;;;;;;17.51;67.45;100744.78;7390539;19;20023;-65
2022/05/11 05:00:03;;;;;;;11.38;10.18;;;;;;;17.57;67.29;100744.47;7390125;19;20014;-65
2022/05/11 05:02:31;;;;;;;16.15;9.80;;;;;;;17.61;67.15;100745.16;7390119;19;20382;-65
2022/05/11 05:05:03;;;;;;;16.58;10.05;;;;;;;17.66;67.32;100753.75;7391685;19;20015;-65
2022/05/11 05:07:31;;;;;;;14.93;10.57;;;;;;;17.69;67.47;100753.56;7391230;19;20019;-64
2022/05/11 05:09:59;;;;;;;11.25;9.90;;;;;;;17.71;67.15;100749.91;7389859;19;20014;-64
2022/05/11 05:12:30;;;;;;;12.30;11.02;;;;;;;17.73;66.95;100749.81;7392681;19;20043;-64
2022/05/11 05:14:58;;;;;;;11.57;10.57;;;;;;;17.75;67.22;100748.81;7390435;19;20385;-65
2022/05/11 05:17:26;;;;;;;13.77;10.90;;;;;;;17.78;67.11;100754.91;7393619;19;20023;-64
2022/05/11 05:19:55;;;;;;;12.45;9.65;;;;;;;17.80;67.20;100737.09;7392206;19;20041;-65
2022/05/11 05:22:24;;;;;;;11.82;10.63;;;;;;;17.82;67.12;100753.78;7389552;19;20500;-65
2022/05/11 05:24:52;;;;;;;12.43;9.82;;;;;;;17.84;66.85;100743.97;7389989;19;20025;-65
2022/05/11 05:27:21;;;;;;;11.90;10.55;;;;;;;17.86;67.22;100739.44;7393179;19;20036;-64
2022/05/11 05:32:38;;;;;;;16.77;10.63;;;;;;;17.90;66.80;100739.19;7399889;19;20014;-65
2022/05/11 05:35:07;;;;;;;12.35;11.07;;;;;;;17.91;67.07;100740.06;7396890;19;20074;-65
2022/05/11 05:37:35;;;;;;;14.00;11.98;;;;;;;17.93;67.11;100740.81;7396378;19;20039;-64
2022/05/11 05:40:05;;;;;;;12.02;10.90;;;;;;;17.95;67.13;100735.47;7397838;19;20480;-65
2022/05/11 05:42:34;;;;;;;14.15;10.70;;;;;;;17.95;66.95;100733.69;7396026;19;20057;-66
2022/05/11 05:45:05;;;;;;;12.63;10.95;;;;;;;17.95;66.90;100728.38;7396330;19;20019;-66
2022/05/11 05:47:34;;;;;;;12.27;10.90;;;;;;;17.96;66.89;100731.88;7399634;19;20010;-66
2022/05/11 05:50:02;;;;;;;14.68;11.23;;;;;;;17.95;66.76;100719.56;7396538;19;20018;-65
2022/05/11 05:52:30;;;;;;;13.27;11.18;;;;;;;17.95;66.71;100717.75;7399023;19;20027;-65
2022/05/11 05:54:59;;;;;;;11.27;10.18;;;;;;;17.95;66.65;100714.25;7396413;19;20035;-65
2022/05/11 05:57:28;;;;;;;11.60;10.18;;;;;;;17.93;66.90;100724.91;7398175;19;20418;-65
2022/05/11 05:59:56;;;;;;;11.85;10.75;;;;;;;17.92;66.89;100724.03;7396799;19;20017;-65
2022/05/11 06:02:34;;;;;;;15.57;10.88;;;;;;;17.93;66.65;100730.19;7396492;19;20018;-65
2022/05/11 06:05:02;;;;;;;12.65;11.30;;;;;;;17.94;66.80;100726.66;7395644;19;20039;-64
2022/05/11 06:07:30;;;;;;;14.77;12.57;;;;;;;17.95;66.66;100731.03;7397534;19;20035;-65
2022/05/11 06:09:59;;;;;;;11.30;10.20;;;;;;;17.99;66.47;100737.88;7397593;19;20405;-65
2022/05/11 06:12:27;;;;;;;12.25;10.80;;;;;;;18.02;66.44;100731.53;7396977;19;20014;-65
2022/05/11 06:14:55;;;;;;;12.98;11.63;;;;;;;18.06;66.29;100735.78;7395409;19;20035;-65
2022/05/11 06:17:25;;;;;;;12.73;11.43;;;;;;;18.12;66.10;100737.22;7395383;19;20045;-65
2022/05/11 06:19:56;;;;;;;14.65;12.88;;;;;;;18.18;65.94;100739.56;7395444;19;20365;-65
2022/05/11 06:22:24;;;;;;;13.10;11.88;;;;;;;18.23;65.94;100732.19;7395913;19;20031;-65
2022/05/11 06:25:00;;;;;;;11.77;10.57;;;;;;;18.28;65.87;100740.78;7396366;19;20025;-65
2022/05/11 06:27:29;;;;;;;12.18;11.07;;;;;;;18.32;65.63;100736.16;7398221;19;20022;-65
2022/05/11 06:29:59;;;;;;;17.80;13.10;;;;;;;18.36;65.20;100741.22;7395695;19;20018;-65
2022/05/11 06:32:27;;;;;;;13.75;11.02;;;;;;;18.42;65.46;100728.56;7395560;19;20035;-66
2022/05/11 06:34:58;;;;;;;12.68;11.32;;;;;;;18.49;65.09;100732.59;7396130;19;20027;-66
2022/05/11 06:37:27;;;;;;;12.95;11.20;;;;;;;18.55;65.29;100737.53;7394904;19;20031;-66
2022/05/11 06:39:56;;;;;;;16.30;11.07;;;;;;;18.61;65.00;100734.53;7395369;19;20489;-66
2022/05/11 06:42:24;;;;;;;15.13;11.82;;;;;;;18.68;65.01;100732.41;7396696;19;20393;-66
2022/05/11 06:44:53;;;;;;;12.32;11.05;;;;;;;18.73;64.82;100725.88;7395843;19;20015;-66
2022/05/11 06:47:22;;;;;;;11.85;10.65;;;;;;;18.80;64.70;100731.72;7397311;19;20014;-65
2022/05/11 06:49:50;;;;;;;13.27;11.95;;;;;;;18.89;64.52;100735.66;7395196;19;20025;-66
2022/05/11 06:52:21;;;;;;;11.05;9.90;;;;;;;18.95;63.95;100731.81;7398407;19;20018;-64
2022/05/11 07:00:26;;;;;;;29.88;12.40;;;;;;;19.21;63.00;100725.00;7395659;19;20014;-65
2022/05/11 07:02:54;;;;;;;18.15;10.70;;;;;;;19.28;62.74;100721.03;7395400;19;20039;-64
2022/05/11 07:05:22;;;;;;;16.67;11.57;;;;;;;19.36;62.49;100724.09;7395327;19;20138;-66
2022/05/11 07:07:54;;;;;;;13.57;11.68;;;;;;;19.44;61.94;100722.81;7394980;19;20018;-66
2022/05/11 07:10:23;;;;;;;17.85;11.60;;;;;;;19.53;61.79;100719.59;7395829;19;20018;-65
2022/05/11 07:12:51;;;;;;;15.68;11.82;;;;;;;19.62;61.71;100713.69;7394385;19;20438;-66
2022/05/11 07:15:22;;;;;;;14.48;10.65;;;;;;;19.70;61.24;100711.44;7394314;19;20022;-65
2022/05/11 07:17:52;;;;;;;14.38;11.32;;;;;;;19.78;60.74;100703.00;7394195;19;20411;-66
2022/05/11 07:20:23;;;;;;;25.63;21.75;;;;;;;19.86;60.35;100700.72;7396505;19;20019;-66
2022/05/11 07:22:54;;;;;;;14.18;10.55;;;;;;;19.96;60.23;100705.50;7396384;19;20015;-66
2022/05/11 07:25:25;;;;;;;12.00;10.68;;;;;;;20.02;59.85;100697.97;7394124;19;20036;-66
2022/05/11 07:27:54;;;;;;;11.38;10.18;;;;;;;20.10;60.12;100696.66;7394136;19;20046;-65
2022/05/11 07:30:24;;;;;;;19.70;10.95;;;;;;;20.16;59.96;100696.28;7393631;19;20481;-66
2022/05/11 07:32:52;;;;;;;12.10;10.77;;;;;;;20.21;59.64;100690.63;7393350;19;20375;-66
2022/05/11 07:35:21;;;;;;;12.27;9.77;;;;;;;20.26;59.18;100686.75;7393809;19;20032;-67
2022/05/11 07:37:49;;;;;;;11.80;10.60;;;;;;;20.30;58.79;100682.06;7395296;19;20018;-67
2022/05/11 07:40:23;;;;;;;11.30;10.18;;;;;;;20.35;58.38;100679.97;7393360;19;20023;-66
2022/05/11 07:42:51;;;;;;;;;;;;;;;20.39;58.30;100670.81;7394811;19;20042;-66
2022/05/11 07:45:23;;;;;;;12.40;8.60;;;;;;;20.43;58.56;100661.66;7393592;19;19927;-65
2022/05/11 07:47:51;;;;;;;13.25;9.82;;;;;;;20.47;58.19;100660.53;7395730;19;20043;-66
2022/05/11 07:50:19;;;;;;;9.80;8.90;;;;;;;20.53;57.97;100656.59;7395375;19;20018;-65
2022/05/11 07:52:49;;;;;;;9.90;8.98;;;;;;;20.58;57.50;100649.16;7390640;19;20037;-65
2022/05/11 07:55:20;;;;;;;9.57;8.70;;;;;;;20.65;56.66;100655.81;7393503;19;20490;-65
2022/05/11 08:00:42;;;;;;;9.38;8.45;;;;;;;20.86;55.06;100642.03;7393629;19;20022;-66
2022/05/11 08:03:11;;;;;;;9.10;8.30;;;;;;;20.96;54.46;100647.63;7393739;19;20022;-65
2022/05/11 08:05:40;;;;;;;9.73;8.63;;;;;;;21.04;54.04;100644.44;7393277;19;20506;-64
2022/05/11 08:08:11;;;;;;;10.30;8.77;;;;;;;21.12;53.56;100640.28;7396837;19;20019;-65
2022/05/11 08:10:44;;;;;;;9.57;8.18;;;;;;;21.24;52.86;100635.91;7395765;19;20015;-65
2022/05/11 08:13:13;;;;;;;8.82;8.02;;;;;;;21.36;52.54;100631.56;7395425;19;20039;-65
2022/05/11 08:15:46;;;;;;;9.68;8.25;;;;;;;21.49;52.15;100629.75;7392970;19;20031;-66
2022/05/11 08:18:15;;;;;;;10.65;8.10;;;;;;;21.59;51.43;100623.81;7394535;19;20503;-64
2022/05/11 08:20:46;;;;;;;9.82;7.40;;;;;;;21.70;51.11;100631.03;7392856;19;20078;-66
2022/05/11 08:23:15;;;;;;;15.60;7.70;;;;;;;21.80;50.99;100626.78;7394456;19;20039;-66
2022/05/11 08:25:49;;;;;;;7.68;7.00;;;;;;;21.88;50.05;100619.06;7392541;19;20022;-66
2022/05/11 08:28:20;;;;;;;9.00;6.82;;;;;;;21.94;49.78;100615.97;7392006;19;20484;-65
2022/05/11 08:33:31;;;;;;;8.98;7.53;;;;;;;21.99;49.88;100607.63;7394088;19;20011;-66
2022/05/11 08:36:01;;;;;;;9.43;8.00;;;;;;;22.00;49.41;100606.63;7392571;19;20035;-67
2022/05/11 08:38:32;;;;;;;9.52;7.05;;;;;;;22.01;49.38;100597.66;7394396;19;20010;-64
2022/05/11 08:41:07;;;;;;;8.68;6.80;;;;;;;22.00;48.47;100597.78;7394535;19;20021;-66
2022/05/11 08:43:37;;;;;;;8.15;7.07;;;;;;;22.01;49.38;100596.81;7392667;19;20031;-66
2022/05/11 08:46:16;;;;;;;10.45;7.05;;;;;;;22.01;48.71;100597.66;7393884;19;20431;-65
2022/05/11 08:48:54;;;;;;;9.38;7.32;;;;;;;22.02;49.00;100594.03;7392555;19;20011;-66
2022/05/11 08:51:29;;;;;;;12.65;7.57;;;;;;;22.03;49.31;100584.22;7394326;19;20024;-65
2022/05/11 08:54:10;;;;;;;8.40;6.88;;;;;;;22.09;49.48;100583.75;7393037;19;20513;-65
2022/05/11 08:56:41;;;;;;;10.75;7.03;;;;;;;22.17;49.06;100578.72;7392394;19;20035;-65
2022/05/11 08:59:16;;;;;;;8.70;6.00;;;;;;;22.25;48.67;100584.34;7392103;19;20030;-65
2022/05/11 09:01:49;;;;;;;7.45;6.05;;;;;;;22.35;48.06;100562.28;7392163;19;20489;-65
2022/05/11 09:04:22;;;;;;;12.68;5.10;;;;;;;22.47;47.90;100557.88;7397168;19;20019;-65
2022/05/11 09:06:51;;;;;;;6.68;4.75;;;;;;;22.59;47.77;100564.97;7399146;19;20022;-66
2022/05/11 09:09:19;;;;;;;9.02;5.07;;;;;;;22.68;46.58;100563.44;7401109;19;20035;-67
2022/05/11 09:11:53;;;;;;;6.05;5.10;;;;;;;22.78;45.12;100567.09;7401620;19;20032;-67
2022/05/11 09:14:28;;;;;;;6.38;4.82;;;;;;;22.87;45.00;100558.38;7398429;19;20022;-66
2022/05/11 09:16:56;;;;;;;4.80;4.40;;;;;;;22.95;45.04;100552.44;7401557;19;20031;-66
2022/05/11 09:19:28;;;;;;;5.03;4.45;;;;;;;23.05;43.67;100561.47;7397942;19;20019;-66
2022/05/11 09:21:59;;;;;;;5.45;4.35;;;;;;;23.16;44.18;100557.13;7400804;19;20018;-66
2022/05/11 09:24:33;;;;;;;9.48;4.60;;;;;;;23.26;43.57;100555.44;7399923;19;20014;-65
2022/05/11 09:27:14;;;;;;;7.32;4.07;;;;;;;23.37;43.42;100544.75;7397636;19;20023;-65
2022/05/11 09:29:44;;;;;;;5.53;4.32;;;;;;;23.49;43.19;100548.25;7400840;19;20022;-65
2022/05/11 09:32:24;;;;;;;10.40;4.85;;;;;;;23.59;42.94;100549.25;7397835;19;20447;-66
2022/05/11 09:34:52;;;;;;;6.82;4.85;;;;;;;23.70;43.25;100544.84;7397261;19;20047;-66
2022/05/11 09:37:37;;;;;;;5.15;4.30;;;;;;;23.78;42.28;100545.06;7399452;19;20513;-67
2022/05/11 09:40:12;;;;;;;5.78;4.47;;;;;;;23.87;42.59;100539.00;7397661;19;20039;-65
2022/05/11 09:42:55;;;;;;;11.05;4.43;;;;;;;23.93;42.63;100524.25;7400064;19;20021;-65
2022/05/11 09:45:38;;;;;;;7.28;4.30;;;;;;;24.01;41.94;100535.22;7397374;19;20035;-65
2022/05/11 09:48:13;;;;;;;10.23;4.00;;;;;;;24.09;41.20;100529.22;7397393;19;20120;-65
2022/05/11 09:50:43;;;;;;;7.72;4.53;;;;;;;24.14;41.22;100520.78;7397562;19;20436;-65
2022/05/11 09:53:27;;;;;;;5.97;3.92;;;;;;;24.17;41.04;100529.41;7397089;19;20023;-66
2022/05/11 09:55:56;;;;;;;6.30;4.13;;;;;;;24.23;41.13;100515.50;7397142;19;20477;-65
2022/05/11 09:58:35;;;;;;;4.50;3.95;;;;;;;24.32;40.53;100502.34;7396525;19;20457;-66
2022/05/11 10:01:19;;;;;;;5.13;3.40;;;;;;;24.38;39.81;100499.13;7397050;19;20034;-65
2022/05/11 10:03:52;;;;;;;9.13;3.30;;;;;;;24.49;39.13;100495.53;7396438;19;20035;-65
2022/05/11 10:06:23;;;;;;;5.25;3.45;;;;;;;24.60;39.75;100500.00;7399258;19;20019;-66
2022/05/11 10:08:54;;;;;;;5.10;3.38;;;;;;;24.69;38.84;100494.75;7398488;19;20472;-65
2022/05/11 10:11:26;;;;;;;12.05;4.07;;;;;;;24.78;38.74;100497.59;7398521;19;20022;-66
2022/05/11 10:21:50;;;;;;;7.20;3.90;;;;;;;24.84;37.67;100487.19;7397450;19;20026;-65
2022/05/11 10:22:28;;;;;;;5.45;3.35;;;;;;;25.03;38.46;100473.03;7398218;19;20512;-63
2022/05/11 10:25:13;;;;;;;8.50;3.05;;;;;;;25.12;38.43;100457.94;7396843;19;20031;-66
2022/05/11 10:27:47;;;;;;;4.63;2.88;;;;;;;25.23;37.12;100469.59;7397593;19;20018;-65
2022/05/11 10:30:24;;;;;;;8.98;3.67;;;;;;;25.29;37.36;100456.47;7396031;19;20035;-66
2022/05/11 10:33:12;;;;;;;7.32;3.20;;;;;;;25.34;36.23;100459.59;7397891;19;20041;-65
2022/05/11 10:35:49;;;;;;;10.07;3.40;;;;;;;25.40;36.29;100458.22;7394911;19;20024;-66
2022/05/11 10:38:31;;;;;;;3.47;3.05;;;;;;;25.48;36.60;100453.00;7396307;19;20023;-66
2022/05/11 10:41:04;;;;;;;6.45;3.00;;;;;;;25.56;36.44;100451.50;7395398;19;20391;-69
2022/05/11 10:43:40;;;;;;;;;;;;;;;25.62;36.41;100443.72;7396118;19;20418;-66
2022/05/11 10:46:17;;;;;;;3.92;3.17;;;;;;;25.69;35.60;100476.25;7398023;19;19919;-67
2022/05/11 10:49:19;;;;;;;5.20;3.03;;;;;;;25.77;36.07;100444.16;7396142;19;20022;-63
2022/05/11 10:51:59;;;;;;;7.45;3.28;;;;;;;25.87;35.64;100436.13;7398208;19;20014;-64
2022/05/11 10:54:36;;;;;;;4.22;3.10;;;;;;;25.96;36.19;100432.59;7395155;19;20026;-64
2022/05/11 10:57:12;;;;;;;11.07;3.58;;;;;;;26.05;35.66;100430.91;7395560;19;20015;-62
2022/05/11 11:00:12;;;;;;;5.28;3.22;;;;;;;26.15;35.76;100429.06;7396874;19;20015;-65
2022/05/11 11:02:59;;;;;;;10.30;3.15;;;;;;;26.25;34.69;100418.31;7393169;19;20010;-64
2022/05/11 11:05:32;;;;;;;10.18;3.25;;;;;;;26.42;35.21;100414.03;7394543;19;20015;-64
2022/05/11 11:08:12;;;;;;;3.88;2.85;;;;;;;26.59;34.01;100417.81;7394853;19;20022;-64
2022/05/11 11:10:47;;;;;;;9.50;3.22;;;;;;;26.68;33.69;100432.25;7396551;19;20018;-64
2022/05/11 11:13:37;;;;;;;6.60;2.75;;;;;;;26.77;33.54;100422.47;7394016;19;20014;-63
2022/05/11 11:16:07;;;;;;;3.92;2.60;;;;;;;26.81;32.89;100413.09;7393742;19;20018;-65
2022/05/11 11:18:41;;;;;;;5.22;2.65;;;;;;;26.86;32.36;100404.59;7394354;19;20015;-63
2022/05/11 11:21:12;;;;;;;6.82;2.75;;;;;;;26.96;33.01;100416.16;7392794;19;20014;-65
2022/05/11 11:23:41;;;;;;;6.80;2.70;;;;;;;26.98;32.19;100419.53;7394226;19;20018;-65
2022/05/11 11:26:12;;;;;;;8.07;2.58;;;;;;;27.03;32.34;100409.16;7395121;19;20019;-64
2022/05/11 11:29:10;;;;;;;4.85;2.40;;;;;;;27.10;31.88;100426.44;7393929;19;20096;-63
2022/05/11 11:32:03;;;;;;;5.97;3.13;;;;;;;27.23;31.45;100399.16;7395270;19;20014;-69
2022/05/11 11:34:35;;;;;;;3.60;2.60;;;;;;;27.34;32.05;100394.56;7398215;19;20486;-68
2022/05/11 11:37:39;;;;;;;8.60;2.92;;;;;;;27.42;31.94;100410.84;7396808;19;20485;-66
2022/05/11 11:40:27;;;;;;;7.30;3.33;;;;;;;27.38;32.02;100404.88;7394691;19;20030;-66
2022/05/11 11:42:55;;;;;;;11.07;2.45;;;;;;;27.38;32.53;100404.03;7394167;19;20028;-67
2022/05/11 11:45:56;;;;;;;7.13;3.03;;;;;;;27.37;32.20;100387.00;7393838;19;20011;-68
2022/05/11 11:48:26;;;;;;;8.52;3.10;;;;;;;27.40;31.28;100389.47;7394128;19;20481;-68
2022/05/11 11:51:01;;;;;;;5.53;2.85;;;;;;;27.52;30.38;100402.72;7394155;19;20075;-67
2022/05/11 11:53:43;;;;;;;3.80;2.30;;;;;;;27.76;29.57;100369.75;7394163;19;20018;-66
2022/05/11 11:56:39;;;;;;;5.70;2.50;;;;;;;27.99;29.46;100359.31;7394406;19;20014;-66
2022/05/11 11:59:11;;;;;;;6.05;2.47;;;;;;;28.16;29.91;100373.81;7391225;19;20788;-66
2022/05/11 12:01:41;;;;;;;3.03;2.63;;;;;;;28.27;30.26;100375.41;7393243;19;20022;-66
2022/05/11 12:04:16;;;;;;;3.95;2.72;;;;;;;28.30;30.22;100372.41;7394441;19;20035;-66
2022/05/11 12:15:06;;;;;;;7.78;2.17;;;;;;;28.43;29.33;100355.78;7393750;19;20018;-64
2022/05/11 12:17:37;;;;;;;4.32;2.65;;;;;;;28.41;29.34;100349.69;7393015;19;20022;-64
2022/05/11 12:20:09;;;;;;;3.72;2.50;;;;;;;28.44;28.93;100342.13;7393291;19;20018;-65
2022/05/11 12:22:47;;;;;;;4.85;2.42;;;;;;;28.54;27.44;100379.81;7392895;19;20045;-66